sensor_id;sensor_type;location;lat;lon;timestamp;P1;durP1;ratioP1;P2;durP2;ratioP2
72060;SDS011;59925;52.136;5.420;2023-05-10T00:00:42;21.60;;;10.02;;
72060;SDS011;59925;52.136;5.420;2023-05-10T00:03:08;20.05;;;10.30;;
72060;SDS011;59925;52.136;5.420;2023-05-10T00:05:35;20.48;;;10.70;;
72060;SDS011;59925;52.136;5.420;2023-05-10T00:08:01;19.53;;;10.20;;
72060;SDS011;59925;52.136;5.420;2023-05-10T00:10:28;20.17;;;9.85;;
72060;SDS011;59925;52.136;5.420;2023-05-10T00:12:54;20.48;;;10.20;;
72060;SDS011;59925;52.136;5.420;2023-05-10T00:15:21;23.63;;;11.57;;
72060;SDS011;59925;52.136;5.420;2023-05-10T00:17:48;24.20;;;10.85;;
72060;SDS011;59925;52.136;5.420;2023-05-10T00:20:14;23.37;;;12.20;;
72060;SDS011;59925;52.136;5.420;2023-05-10T00:22:41;22.10;;;11.82;;
72060;SDS011;59925;52.136;5.420;2023-05-10T00:25:08;25.55;;;13.45;;
72060;SDS011;59925;52.136;5.420;2023-05-10T00:27:36;23.65;;;12.07;;
72060;SDS011;59925;52.136;5.420;2023-05-10T00:30:03;25.52;;;12.77;;
72060;SDS011;59925;52.136;5.420;2023-05-10T00:32:29;24.87;;;13.17;;
72060;SDS011;59925;52.136;5.420;2023-05-10T00:34:56;30.38;;;13.55;;
72060;SDS011;59925;52.136;5.420;2023-05-10T00:37:23;26.30;;;12.77;;
72060;SDS011;59925;52.136;5.420;2023-05-10T00:39:49;29.88;;;14.10;;
72060;SDS011;59925;52.136;5.420;2023-05-10T00:42:16;34.78;;;14.68;;
72060;SDS011;59925;52.136;5.420;2023-05-10T00:44:43;32.20;;;14.13;;
72060;SDS011;59925;52.136;5.420;2023-05-10T00:47:09;37.35;;;16.58;;
72060;SDS011;59925;52.136;5.420;2023-05-10T00:49:36;37.25;;;17.02;;
72060;SDS011;59925;52.136;5.420;2023-05-10T00:52:03;43.33;;;17.70;;
72060;SDS011;59925;52.136;5.420;2023-05-10T00:54:30;39.28;;;17.05;;
72060;SDS011;59925;52.136;5.420;2023-05-10T00:56:57;47.23;;;17.60;;
72060;SDS011;59925;52.136;5.420;2023-05-10T00:59:23;43.97;;;18.60;;
72060;SDS011;59925;52.136;5.420;2023-05-10T01:01:50;44.00;;;18.55;;
72060;SDS011;59925;52.136;5.420;2023-05-10T01:04:18;46.17;;;19.02;;
72060;SDS011;59925;52.136;5.420;2023-05-10T01:06:46;44.75;;;19.85;;
72060;SDS011;59925;52.136;5.420;2023-05-10T01:09:12;46.57;;;17.83;;
72060;SDS011;59925;52.136;5.420;2023-05-10T01:11:39;46.15;;;17.38;;
72060;SDS011;59925;52.136;5.420;2023-05-10T01:14:06;44.03;;;17.98;;
72060;SDS011;59925;52.136;5.420;2023-05-10T01:16:39;41.72;;;18.27;;
72060;SDS011;59925;52.136;5.420;2023-05-10T01:19:12;44.60;;;19.20;;
72060;SDS011;59925;52.136;5.420;2023-05-10T01:21:48;41.80;;;18.57;;
72060;SDS011;59925;52.136;5.420;2023-05-10T01:24:31;42.75;;;18.50;;
72060;SDS011;59925;52.136;5.420;2023-05-10T01:27:11;40.90;;;17.80;;
72060;SDS011;59925;52.136;5.420;2023-05-10T01:30:02;42.08;;;17.98;;
72060;SDS011;59925;52.136;5.420;2023-05-10T01:35:53;43.17;;;17.40;;
72060;SDS011;59925;52.136;5.420;2023-05-10T01:38:29;43.10;;;18.17;;
72060;SDS011;59925;52.136;5.420;2023-05-10T01:43:37;43.47;;;17.45;;
72060;SDS011;59925;52.136;5.420;2023-05-10T01:46:16;42.90;;;17.65;;
72060;SDS011;59925;52.136;5.420;2023-05-10T01:48:47;46.97;;;18.27;;
72060;SDS011;59925;52.136;5.420;2023-05-10T01:51:19;46.17;;;18.08;;
72060;SDS011;59925;52.136;5.420;2023-05-10T01:53:49;44.53;;;18.13;;
72060;SDS011;59925;52.136;5.420;2023-05-10T01:56:20;46.53;;;18.73;;
72060;SDS011;59925;52.136;5.420;2023-05-10T01:58:52;47.67;;;18.35;;
72060;SDS011;59925;52.136;5.420;2023-05-10T02:01:21;47.20;;;19.13;;
72060;SDS011;59925;52.136;5.420;2023-05-10T02:03:49;46.60;;;19.05;;
72060;SDS011;59925;52.136;5.420;2023-05-10T02:06:18;45.47;;;18.45;;
72060;SDS011;59925;52.136;5.420;2023-05-10T02:08:47;46.85;;;18.50;;
72060;SDS011;59925;52.136;5.420;2023-05-10T02:11:15;49.47;;;19.55;;
72060;SDS011;59925;52.136;5.420;2023-05-10T02:13:44;45.37;;;18.97;;
72060;SDS011;59925;52.136;5.420;2023-05-10T02:16:13;47.80;;;20.10;;
72060;SDS011;59925;52.136;5.420;2023-05-10T02:18:42;45.80;;;18.63;;
72060;SDS011;59925;52.136;5.420;2023-05-10T02:21:10;47.95;;;19.10;;
72060;SDS011;59925;52.136;5.420;2023-05-10T02:23:36;49.22;;;19.70;;
72060;SDS011;59925;52.136;5.420;2023-05-10T02:26:03;47.03;;;18.63;;
72060;SDS011;59925;52.136;5.420;2023-05-10T02:28:32;47.63;;;18.58;;
72060;SDS011;59925;52.136;5.420;2023-05-10T02:31:01;47.53;;;20.10;;
72060;SDS011;59925;52.136;5.420;2023-05-10T02:33:28;49.28;;;18.25;;
72060;SDS011;59925;52.136;5.420;2023-05-10T02:35:56;47.90;;;19.55;;
72060;SDS011;59925;52.136;5.420;2023-05-10T02:38:23;52.07;;;19.43;;
72060;SDS011;59925;52.136;5.420;2023-05-10T02:40:52;41.03;;;18.38;;
72060;SDS011;59925;52.136;5.420;2023-05-10T02:43:20;46.65;;;18.67;;
72060;SDS011;59925;52.136;5.420;2023-05-10T02:45:49;43.38;;;18.70;;
72060;SDS011;59925;52.136;5.420;2023-05-10T02:48:18;43.38;;;18.02;;
72060;SDS011;59925;52.136;5.420;2023-05-10T02:50:46;48.43;;;19.27;;
72060;SDS011;59925;52.136;5.420;2023-05-10T02:53:31;44.40;;;19.80;;
72060;SDS011;59925;52.136;5.420;2023-05-10T02:56:13;48.88;;;19.48;;
72060;SDS011;59925;52.136;5.420;2023-05-10T02:58:45;45.55;;;18.55;;
72060;SDS011;59925;52.136;5.420;2023-05-10T03:01:12;43.97;;;18.65;;
72060;SDS011;59925;52.136;5.420;2023-05-10T03:03:38;49.20;;;19.77;;
72060;SDS011;59925;52.136;5.420;2023-05-10T03:06:06;55.10;;;20.58;;
72060;SDS011;59925;52.136;5.420;2023-05-10T03:08:33;52.92;;;20.83;;
72060;SDS011;59925;52.136;5.420;2023-05-10T03:11:10;62.85;;;20.90;;
72060;SDS011;59925;52.136;5.420;2023-05-10T03:16:59;60.20;;;20.80;;
72060;SDS011;59925;52.136;5.420;2023-05-10T03:19:43;55.88;;;20.55;;
72060;SDS011;59925;52.136;5.420;2023-05-10T03:22:16;59.05;;;21.63;;
72060;SDS011;59925;52.136;5.420;2023-05-10T03:24:56;55.70;;;20.98;;
72060;SDS011;59925;52.136;5.420;2023-05-10T03:27:25;59.35;;;20.35;;
72060;SDS011;59925;52.136;5.420;2023-05-10T03:29:53;54.80;;;20.10;;
72060;SDS011;59925;52.136;5.420;2023-05-10T03:32:20;57.60;;;20.27;;
72060;SDS011;59925;52.136;5.420;2023-05-10T03:34:48;62.45;;;21.52;;
72060;SDS011;59925;52.136;5.420;2023-05-10T03:37:14;66.68;;;21.38;;
72060;SDS011;59925;52.136;5.420;2023-05-10T03:39:41;64.57;;;20.92;;
72060;SDS011;59925;52.136;5.420;2023-05-10T03:42:07;63.07;;;20.37;;
72060;SDS011;59925;52.136;5.420;2023-05-10T03:44:34;63.20;;;19.83;;
72060;SDS011;59925;52.136;5.420;2023-05-10T03:47:00;65.10;;;20.67;;
72060;SDS011;59925;52.136;5.420;2023-05-10T03:49:27;59.15;;;19.40;;
72060;SDS011;59925;52.136;5.420;2023-05-10T03:51:53;63.03;;;20.23;;
72060;SDS011;59925;52.136;5.420;2023-05-10T03:54:20;61.47;;;20.27;;
72060;SDS011;59925;52.136;5.420;2023-05-10T03:56:47;57.05;;;19.73;;
72060;SDS011;59925;52.136;5.420;2023-05-10T03:59:14;59.42;;;19.70;;
72060;SDS011;59925;52.136;5.420;2023-05-10T04:01:40;60.05;;;19.00;;
72060;SDS011;59925;52.136;5.420;2023-05-10T04:04:07;69.75;;;19.88;;
72060;SDS011;59925;52.136;5.420;2023-05-10T04:06:34;60.87;;;19.73;;
72060;SDS011;59925;52.136;5.420;2023-05-10T04:09:01;66.55;;;21.52;;
72060;SDS011;59925;52.136;5.420;2023-05-10T04:11:30;63.17;;;20.95;;
72060;SDS011;59925;52.136;5.420;2023-05-10T04:13:56;61.67;;;20.63;;
72060;SDS011;59925;52.136;5.420;2023-05-10T04:16:23;56.53;;;21.17;;
72060;SDS011;59925;52.136;5.420;2023-05-10T04:18:49;64.37;;;19.63;;
72060;SDS011;59925;52.136;5.420;2023-05-10T04:21:16;57.22;;;19.42;;
72060;SDS011;59925;52.136;5.420;2023-05-10T04:23:43;64.68;;;20.23;;
72060;SDS011;59925;52.136;5.420;2023-05-10T04:26:09;58.10;;;20.13;;
72060;SDS011;59925;52.136;5.420;2023-05-10T04:28:36;69.35;;;20.23;;
72060;SDS011;59925;52.136;5.420;2023-05-10T04:31:05;58.33;;;19.10;;
72060;SDS011;59925;52.136;5.420;2023-05-10T04:33:33;57.70;;;18.27;;
72060;SDS011;59925;52.136;5.420;2023-05-10T04:36:00;64.60;;;20.38;;
72060;SDS011;59925;52.136;5.420;2023-05-10T04:38:27;56.53;;;19.73;;
72060;SDS011;59925;52.136;5.420;2023-05-10T04:40:55;57.50;;;19.02;;
72060;SDS011;59925;52.136;5.420;2023-05-10T04:43:30;54.57;;;18.40;;
72060;SDS011;59925;52.136;5.420;2023-05-10T04:45:57;59.83;;;19.58;;
72060;SDS011;59925;52.136;5.420;2023-05-10T04:48:23;63.13;;;20.15;;
72060;SDS011;59925;52.136;5.420;2023-05-10T04:50:50;58.90;;;20.33;;
72060;SDS011;59925;52.136;5.420;2023-05-10T04:53:16;56.45;;;19.13;;
72060;SDS011;59925;52.136;5.420;2023-05-10T04:55:42;62.27;;;19.60;;
72060;SDS011;59925;52.136;5.420;2023-05-10T04:58:09;61.88;;;20.23;;
72060;SDS011;59925;52.136;5.420;2023-05-10T05:00:35;60.78;;;20.20;;
72060;SDS011;59925;52.136;5.420;2023-05-10T05:03:02;66.63;;;20.35;;
72060;SDS011;59925;52.136;5.420;2023-05-10T05:05:29;69.15;;;20.77;;
72060;SDS011;59925;52.136;5.420;2023-05-10T05:07:56;62.73;;;20.40;;
72060;SDS011;59925;52.136;5.420;2023-05-10T05:10:22;59.38;;;20.27;;
72060;SDS011;59925;52.136;5.420;2023-05-10T05:12:49;59.90;;;20.23;;
72060;SDS011;59925;52.136;5.420;2023-05-10T05:15:15;61.28;;;21.02;;
72060;SDS011;59925;52.136;5.420;2023-05-10T05:17:43;60.08;;;21.10;;
72060;SDS011;59925;52.136;5.420;2023-05-10T05:20:10;66.47;;;21.33;;
72060;SDS011;59925;52.136;5.420;2023-05-10T05:22:37;60.22;;;20.00;;
72060;SDS011;59925;52.136;5.420;2023-05-10T05:25:04;63.97;;;21.13;;
72060;SDS011;59925;52.136;5.420;2023-05-10T05:27:31;69.03;;;21.30;;
72060;SDS011;59925;52.136;5.420;2023-05-10T05:29:58;66.65;;;20.92;;
72060;SDS011;59925;52.136;5.420;2023-05-10T05:32:25;63.93;;;21.60;;
72060;SDS011;59925;52.136;5.420;2023-05-10T05:34:52;67.10;;;22.58;;
72060;SDS011;59925;52.136;5.420;2023-05-10T05:37:18;56.55;;;20.33;;
72060;SDS011;59925;52.136;5.420;2023-05-10T05:39:47;59.40;;;21.63;;
72060;SDS011;59925;52.136;5.420;2023-05-10T05:42:14;61.75;;;21.48;;
72060;SDS011;59925;52.136;5.420;2023-05-10T05:44:42;58.83;;;19.77;;
72060;SDS011;59925;52.136;5.420;2023-05-10T05:47:09;56.47;;;20.33;;
72060;SDS011;59925;52.136;5.420;2023-05-10T05:49:36;54.20;;;19.30;;
72060;SDS011;59925;52.136;5.420;2023-05-10T05:52:03;56.63;;;20.23;;
72060;SDS011;59925;52.136;5.420;2023-05-10T05:54:30;56.53;;;19.85;;
72060;SDS011;59925;52.136;5.420;2023-05-10T05:56:58;55.23;;;18.60;;
72060;SDS011;59925;52.136;5.420;2023-05-10T05:59:26;51.08;;;19.45;;
72060;SDS011;59925;52.136;5.420;2023-05-10T06:01:53;57.70;;;18.33;;
72060;SDS011;59925;52.136;5.420;2023-05-10T06:04:20;52.65;;;20.10;;
72060;SDS011;59925;52.136;5.420;2023-05-10T06:06:46;53.47;;;20.08;;
72060;SDS011;59925;52.136;5.420;2023-05-10T06:09:13;52.20;;;19.57;;
72060;SDS011;59925;52.136;5.420;2023-05-10T06:11:39;49.78;;;19.35;;
72060;SDS011;59925;52.136;5.420;2023-05-10T06:14:06;47.58;;;18.25;;
72060;SDS011;59925;52.136;5.420;2023-05-10T06:16:34;47.08;;;18.33;;
72060;SDS011;59925;52.136;5.420;2023-05-10T06:19:01;44.42;;;18.48;;
72060;SDS011;59925;52.136;5.420;2023-05-10T06:21:28;43.13;;;18.20;;
72060;SDS011;59925;52.136;5.420;2023-05-10T06:23:55;45.33;;;18.15;;
72060;SDS011;59925;52.136;5.420;2023-05-10T06:26:21;45.42;;;18.98;;
72060;SDS011;59925;52.136;5.420;2023-05-10T06:28:47;46.05;;;18.30;;
72060;SDS011;59925;52.136;5.420;2023-05-10T06:31:14;43.90;;;17.65;;
72060;SDS011;59925;52.136;5.420;2023-05-10T06:33:41;43.23;;;18.33;;
72060;SDS011;59925;52.136;5.420;2023-05-10T06:36:07;44.67;;;17.17;;
72060;SDS011;59925;52.136;5.420;2023-05-10T06:38:34;39.17;;;16.60;;
72060;SDS011;59925;52.136;5.420;2023-05-10T06:41:00;44.33;;;16.65;;
72060;SDS011;59925;52.136;5.420;2023-05-10T06:43:27;39.92;;;15.38;;
72060;SDS011;59925;52.136;5.420;2023-05-10T06:45:55;36.40;;;14.93;;
72060;SDS011;59925;52.136;5.420;2023-05-10T06:48:22;39.20;;;14.75;;
72060;SDS011;59925;52.136;5.420;2023-05-10T06:50:48;34.10;;;14.07;;
72060;SDS011;59925;52.136;5.420;2023-05-10T06:53:15;34.95;;;13.82;;
72060;SDS011;59925;52.136;5.420;2023-05-10T06:55:41;36.20;;;12.93;;
72060;SDS011;59925;52.136;5.420;2023-05-10T06:58:08;27.17;;;11.40;;
72060;SDS011;59925;52.136;5.420;2023-05-10T07:00:34;22.50;;;10.52;;
72060;SDS011;59925;52.136;5.420;2023-05-10T07:03:01;22.65;;;10.13;;
72060;SDS011;59925;52.136;5.420;2023-05-10T07:05:28;21.17;;;9.50;;
72060;SDS011;59925;52.136;5.420;2023-05-10T07:07:55;22.40;;;9.50;;
72060;SDS011;59925;52.136;5.420;2023-05-10T07:10:22;21.53;;;9.10;;
72060;SDS011;59925;52.136;5.420;2023-05-10T07:12:48;16.92;;;8.77;;
72060;SDS011;59925;52.136;5.420;2023-05-10T07:15:15;15.18;;;7.53;;
72060;SDS011;59925;52.136;5.420;2023-05-10T07:17:42;19.35;;;8.20;;
72060;SDS011;59925;52.136;5.420;2023-05-10T07:20:11;20.63;;;8.98;;
72060;SDS011;59925;52.136;5.420;2023-05-10T07:22:38;18.67;;;8.20;;
72060;SDS011;59925;52.136;5.420;2023-05-10T07:25:04;18.63;;;8.68;;
72060;SDS011;59925;52.136;5.420;2023-05-10T07:27:31;16.25;;;8.27;;
72060;SDS011;59925;52.136;5.420;2023-05-10T07:29:58;17.58;;;7.38;;
72060;SDS011;59925;52.136;5.420;2023-05-10T07:32:25;16.23;;;7.75;;
72060;SDS011;59925;52.136;5.420;2023-05-10T07:34:52;13.00;;;6.37;;
72060;SDS011;59925;52.136;5.420;2023-05-10T07:37:18;17.52;;;7.38;;
72060;SDS011;59925;52.136;5.420;2023-05-10T07:39:44;16.27;;;7.38;;
72060;SDS011;59925;52.136;5.420;2023-05-10T07:42:11;16.70;;;7.50;;
72060;SDS011;59925;52.136;5.420;2023-05-10T07:44:37;16.65;;;7.85;;
72060;SDS011;59925;52.136;5.420;2023-05-10T07:47:04;16.70;;;7.73;;
72060;SDS011;59925;52.136;5.420;2023-05-10T07:49:30;16.75;;;8.50;;
72060;SDS011;59925;52.136;5.420;2023-05-10T07:51:57;19.25;;;8.45;;
72060;SDS011;59925;52.136;5.420;2023-05-10T07:54:23;18.35;;;7.25;;
72060;SDS011;59925;52.136;5.420;2023-05-10T07:56:50;15.68;;;7.82;;
72060;SDS011;59925;52.136;5.420;2023-05-10T07:59:17;16.50;;;8.20;;
72060;SDS011;59925;52.136;5.420;2023-05-10T08:01:44;15.02;;;7.53;;
72060;SDS011;59925;52.136;5.420;2023-05-10T08:04:11;15.98;;;7.07;;
72060;SDS011;59925;52.136;5.420;2023-05-10T08:06:37;12.52;;;6.45;;
72060;SDS011;59925;52.136;5.420;2023-05-10T08:09:05;13.40;;;6.25;;
72060;SDS011;59925;52.136;5.420;2023-05-10T08:11:31;15.30;;;6.70;;
72060;SDS011;59925;52.136;5.420;2023-05-10T08:14:00;12.80;;;7.05;;
72060;SDS011;59925;52.136;5.420;2023-05-10T08:16:26;14.35;;;7.55;;
72060;SDS011;59925;52.136;5.420;2023-05-10T08:18:53;15.52;;;7.65;;
72060;SDS011;59925;52.136;5.420;2023-05-10T08:21:21;13.45;;;7.18;;
72060;SDS011;59925;52.136;5.420;2023-05-10T08:23:48;14.63;;;8.03;;
72060;SDS011;59925;52.136;5.420;2023-05-10T08:26:15;13.52;;;7.22;;
72060;SDS011;59925;52.136;5.420;2023-05-10T08:28:41;13.00;;;7.53;;
72060;SDS011;59925;52.136;5.420;2023-05-10T08:31:08;15.93;;;8.20;;
72060;SDS011;59925;52.136;5.420;2023-05-10T08:33:34;17.13;;;8.60;;
72060;SDS011;59925;52.136;5.420;2023-05-10T08:36:01;17.03;;;8.50;;
72060;SDS011;59925;52.136;5.420;2023-05-10T08:38:27;16.27;;;7.60;;
72060;SDS011;59925;52.136;5.420;2023-05-10T08:40:54;14.73;;;8.25;;
72060;SDS011;59925;52.136;5.420;2023-05-10T08:43:28;12.57;;;7.28;;
72060;SDS011;59925;52.136;5.420;2023-05-10T08:45:56;19.60;;;9.00;;
72060;SDS011;59925;52.136;5.420;2023-05-10T08:48:26;17.87;;;8.77;;
72060;SDS011;59925;52.136;5.420;2023-05-10T08:50:55;16.25;;;8.18;;
72060;SDS011;59925;52.136;5.420;2023-05-10T08:53:26;19.23;;;8.93;;
72060;SDS011;59925;52.136;5.420;2023-05-10T08:55:53;15.93;;;8.80;;
72060;SDS011;59925;52.136;5.420;2023-05-10T08:58:20;12.52;;;7.15;;
72060;SDS011;59925;52.136;5.420;2023-05-10T09:00:48;15.37;;;8.57;;
72060;SDS011;59925;52.136;5.420;2023-05-10T09:03:17;15.32;;;8.38;;
72060;SDS011;59925;52.136;5.420;2023-05-10T09:05:44;13.15;;;7.18;;
72060;SDS011;59925;52.136;5.420;2023-05-10T09:08:11;12.82;;;7.07;;
72060;SDS011;59925;52.136;5.420;2023-05-10T09:10:39;13.48;;;7.25;;
72060;SDS011;59925;52.136;5.420;2023-05-10T09:13:08;11.97;;;6.30;;
72060;SDS011;59925;52.136;5.420;2023-05-10T09:15:37;12.18;;;6.63;;
72060;SDS011;59925;52.136;5.420;2023-05-10T09:18:05;11.27;;;6.43;;
72060;SDS011;59925;52.136;5.420;2023-05-10T09:20:32;9.23;;;5.68;;
72060;SDS011;59925;52.136;5.420;2023-05-10T09:22:59;10.18;;;5.50;;
72060;SDS011;59925;52.136;5.420;2023-05-10T09:25:25;6.00;;;3.47;;
72060;SDS011;59925;52.136;5.420;2023-05-10T09:27:52;8.10;;;3.88;;
72060;SDS011;59925;52.136;5.420;2023-05-10T09:30:25;7.60;;;3.50;;
72060;SDS011;59925;52.136;5.420;2023-05-10T09:32:53;6.18;;;3.83;;
72060;SDS011;59925;52.136;5.420;2023-05-10T09:35:22;5.50;;;2.90;;
72060;SDS011;59925;52.136;5.420;2023-05-10T09:37:55;4.93;;;3.03;;
72060;SDS011;59925;52.136;5.420;2023-05-10T09:40:24;6.28;;;3.10;;
72060;SDS011;59925;52.136;5.420;2023-05-10T09:42:53;6.63;;;3.28;;
72060;SDS011;59925;52.136;5.420;2023-05-10T09:45:20;4.57;;;2.67;;
72060;SDS011;59925;52.136;5.420;2023-05-10T09:47:51;5.85;;;2.80;;
72060;SDS011;59925;52.136;5.420;2023-05-10T09:50:18;5.07;;;2.57;;
72060;SDS011;59925;52.136;5.420;2023-05-10T09:52:55;4.70;;;2.75;;
72060;SDS011;59925;52.136;5.420;2023-05-10T09:58:01;6.18;;;3.42;;
72060;SDS011;59925;52.136;5.420;2023-05-10T10:00:28;7.00;;;3.80;;
72060;SDS011;59925;52.136;5.420;2023-05-10T10:03:01;5.60;;;3.40;;
72060;SDS011;59925;52.136;5.420;2023-05-10T10:07:57;5.50;;;3.90;;
72060;SDS011;59925;52.136;5.420;2023-05-10T10:10:27;6.88;;;4.82;;
72060;SDS011;59925;52.136;5.420;2023-05-10T10:12:54;9.48;;;4.38;;
72060;SDS011;59925;52.136;5.420;2023-05-10T10:15:22;7.33;;;4.03;;
72060;SDS011;59925;52.136;5.420;2023-05-10T10:17:49;7.93;;;3.70;;
72060;SDS011;59925;52.136;5.420;2023-05-10T10:20:18;8.40;;;3.70;;
72060;SDS011;59925;52.136;5.420;2023-05-10T10:22:46;7.32;;;3.83;;
72060;SDS011;59925;52.136;5.420;2023-05-10T10:25:14;8.02;;;4.00;;
72060;SDS011;59925;52.136;5.420;2023-05-10T10:35:45;6.40;;;3.97;;
72060;SDS011;59925;52.136;5.420;2023-05-10T10:38:13;5.53;;;3.83;;
72060;SDS011;59925;52.136;5.420;2023-05-10T10:40:39;7.80;;;4.40;;
72060;SDS011;59925;52.136;5.420;2023-05-10T10:43:25;7.70;;;4.40;;
72060;SDS011;59925;52.136;5.420;2023-05-10T10:48:47;8.52;;;4.03;;
72060;SDS011;59925;52.136;5.420;2023-05-10T10:51:16;7.03;;;4.00;;
72060;SDS011;59925;52.136;5.420;2023-05-10T10:53:42;7.40;;;4.00;;
72060;SDS011;59925;52.136;5.420;2023-05-10T10:56:10;7.93;;;4.40;;
72060;SDS011;59925;52.136;5.420;2023-05-10T10:58:39;7.75;;;4.10;;
72060;SDS011;59925;52.136;5.420;2023-05-10T11:01:10;7.05;;;4.13;;
72060;SDS011;59925;52.136;5.420;2023-05-10T11:03:39;8.05;;;4.50;;
72060;SDS011;59925;52.136;5.420;2023-05-10T11:06:06;6.97;;;3.77;;
72060;SDS011;59925;52.136;5.420;2023-05-10T11:08:34;6.70;;;3.80;;
72060;SDS011;59925;52.136;5.420;2023-05-10T11:11:09;5.93;;;3.53;;
72060;SDS011;59925;52.136;5.420;2023-05-10T11:16:21;7.00;;;4.15;;
72060;SDS011;59925;52.136;5.420;2023-05-10T11:21:22;5.68;;;3.80;;
72060;SDS011;59925;52.136;5.420;2023-05-10T11:23:50;7.10;;;4.00;;
72060;SDS011;59925;52.136;5.420;2023-05-10T11:26:25;7.00;;;3.80;;
72060;SDS011;59925;52.136;5.420;2023-05-10T11:28:56;11.32;;;5.15;;
72060;SDS011;59925;52.136;5.420;2023-05-10T11:31:24;6.90;;;4.20;;
72060;SDS011;59925;52.136;5.420;2023-05-10T11:33:56;8.18;;;4.15;;
72060;SDS011;59925;52.136;5.420;2023-05-10T11:36:25;7.63;;;3.80;;
72060;SDS011;59925;52.136;5.420;2023-05-10T11:38:54;10.50;;;3.88;;
72060;SDS011;59925;52.136;5.420;2023-05-10T11:41:22;6.70;;;3.90;;
72060;SDS011;59925;52.136;5.420;2023-05-10T11:43:51;6.87;;;3.87;;
72060;SDS011;59925;52.136;5.420;2023-05-10T11:46:20;6.15;;;3.70;;
72060;SDS011;59925;52.136;5.420;2023-05-10T11:48:55;7.30;;;3.80;;
72060;SDS011;59925;52.136;5.420;2023-05-10T11:51:26;4.68;;;2.70;;
72060;SDS011;59925;52.136;5.420;2023-05-10T11:53:54;6.05;;;3.38;;
72060;SDS011;59925;52.136;5.420;2023-05-10T11:56:22;5.77;;;2.80;;
72060;SDS011;59925;52.136;5.420;2023-05-10T11:58:56;6.35;;;3.50;;
72060;SDS011;59925;52.136;5.420;2023-05-10T12:01:24;5.90;;;2.88;;
72060;SDS011;59925;52.136;5.420;2023-05-10T12:03:53;4.75;;;2.70;;
72060;SDS011;59925;52.136;5.420;2023-05-10T12:06:27;6.35;;;2.80;;
72060;SDS011;59925;52.136;5.420;2023-05-10T12:08:54;5.50;;;3.43;;
72060;SDS011;59925;52.136;5.420;2023-05-10T12:11:23;5.75;;;2.95;;
72060;SDS011;59925;52.136;5.420;2023-05-10T12:13:51;4.22;;;2.60;;
72060;SDS011;59925;52.136;5.420;2023-05-10T12:16:20;6.13;;;2.47;;
72060;SDS011;59925;52.136;5.420;2023-05-10T12:18:48;4.32;;;2.00;;
72060;SDS011;59925;52.136;5.420;2023-05-10T12:21:17;3.83;;;2.30;;
72060;SDS011;59925;52.136;5.420;2023-05-10T12:23:52;4.90;;;2.30;;
72060;SDS011;59925;52.136;5.420;2023-05-10T12:26:23;4.72;;;2.70;;
72060;SDS011;59925;52.136;5.420;2023-05-10T12:29:01;7.10;;;2.75;;
72060;SDS011;59925;52.136;5.420;2023-05-10T12:31:51;4.05;;;2.63;;
72060;SDS011;59925;52.136;5.420;2023-05-10T12:34:26;3.90;;;2.43;;
72060;SDS011;59925;52.136;5.420;2023-05-10T12:36:53;4.13;;;2.40;;
72060;SDS011;59925;52.136;5.420;2023-05-10T12:39:20;3.97;;;1.88;;
72060;SDS011;59925;52.136;5.420;2023-05-10T12:41:47;4.20;;;2.13;;
72060;SDS011;59925;52.136;5.420;2023-05-10T12:44:14;3.58;;;1.70;;
72060;SDS011;59925;52.136;5.420;2023-05-10T12:46:40;3.63;;;1.73;;
72060;SDS011;59925;52.136;5.420;2023-05-10T12:49:07;4.50;;;1.85;;
72060;SDS011;59925;52.136;5.420;2023-05-10T12:51:35;2.60;;;1.80;;
72060;SDS011;59925;52.136;5.420;2023-05-10T12:54:02;3.55;;;2.25;;
72060;SDS011;59925;52.136;5.420;2023-05-10T12:56:29;3.72;;;2.15;;
72060;SDS011;59925;52.136;5.420;2023-05-10T12:58:56;2.40;;;1.57;;
72060;SDS011;59925;52.136;5.420;2023-05-10T13:01:24;3.88;;;1.73;;
72060;SDS011;59925;52.136;5.420;2023-05-10T13:03:50;3.05;;;1.90;;
72060;SDS011;59925;52.136;5.420;2023-05-10T13:06:17;3.60;;;2.20;;
72060;SDS011;59925;52.136;5.420;2023-05-10T13:08:43;4.18;;;2.17;;
72060;SDS011;59925;52.136;5.420;2023-05-10T13:11:10;4.23;;;1.97;;
72060;SDS011;59925;52.136;5.420;2023-05-10T13:13:37;3.38;;;1.60;;
72060;SDS011;59925;52.136;5.420;2023-05-10T13:16:03;3.63;;;1.70;;
72060;SDS011;59925;52.136;5.420;2023-05-10T13:18:30;3.20;;;1.65;;
72060;SDS011;59925;52.136;5.420;2023-05-10T13:20:57;4.40;;;2.00;;
72060;SDS011;59925;52.136;5.420;2023-05-10T13:23:23;6.07;;;3.40;;
72060;SDS011;59925;52.136;5.420;2023-05-10T13:25:50;5.63;;;3.70;;
72060;SDS011;59925;52.136;5.420;2023-05-10T13:28:16;5.97;;;3.95;;
72060;SDS011;59925;52.136;5.420;2023-05-10T13:30:43;7.13;;;4.10;;
72060;SDS011;59925;52.136;5.420;2023-05-10T13:33:09;7.25;;;3.92;;
72060;SDS011;59925;52.136;5.420;2023-05-10T13:35:36;8.00;;;3.97;;
72060;SDS011;59925;52.136;5.420;2023-05-10T13:38:02;8.50;;;3.90;;
72060;SDS011;59925;52.136;5.420;2023-05-10T13:40:29;8.60;;;4.03;;
72060;SDS011;59925;52.136;5.420;2023-05-10T13:42:55;8.75;;;4.50;;
72060;SDS011;59925;52.136;5.420;2023-05-10T13:45:22;8.27;;;4.43;;
72060;SDS011;59925;52.136;5.420;2023-05-10T13:47:48;7.33;;;4.33;;
72060;SDS011;59925;52.136;5.420;2023-05-10T13:50:15;8.82;;;4.38;;
72060;SDS011;59925;52.136;5.420;2023-05-10T13:52:42;8.90;;;4.15;;
72060;SDS011;59925;52.136;5.420;2023-05-10T13:55:08;10.10;;;4.22;;
72060;SDS011;59925;52.136;5.420;2023-05-10T13:57:34;9.88;;;4.10;;
72060;SDS011;59925;52.136;5.420;2023-05-10T14:00:02;7.97;;;4.50;;
72060;SDS011;59925;52.136;5.420;2023-05-10T14:02:28;9.77;;;4.88;;
72060;SDS011;59925;52.136;5.420;2023-05-10T14:04:55;11.48;;;4.28;;
72060;SDS011;59925;52.136;5.420;2023-05-10T14:07:22;8.75;;;4.97;;
72060;SDS011;59925;52.136;5.420;2023-05-10T14:09:48;8.50;;;4.03;;
72060;SDS011;59925;52.136;5.420;2023-05-10T14:12:15;7.37;;;4.00;;
72060;SDS011;59925;52.136;5.420;2023-05-10T14:14:42;10.10;;;4.30;;
72060;SDS011;59925;52.136;5.420;2023-05-10T14:17:08;8.20;;;4.45;;
72060;SDS011;59925;52.136;5.420;2023-05-10T14:19:37;9.45;;;4.05;;
72060;SDS011;59925;52.136;5.420;2023-05-10T14:22:05;8.52;;;4.18;;
72060;SDS011;59925;52.136;5.420;2023-05-10T14:24:31;9.73;;;4.67;;
72060;SDS011;59925;52.136;5.420;2023-05-10T14:26:58;9.15;;;4.07;;
72060;SDS011;59925;52.136;5.420;2023-05-10T14:29:25;11.45;;;5.75;;
72060;SDS011;59925;52.136;5.420;2023-05-10T14:31:51;12.95;;;4.70;;
72060;SDS011;59925;52.136;5.420;2023-05-10T14:34:18;10.50;;;4.72;;
72060;SDS011;59925;52.136;5.420;2023-05-10T14:36:44;10.53;;;4.80;;
72060;SDS011;59925;52.136;5.420;2023-05-10T14:39:11;10.63;;;5.28;;
72060;SDS011;59925;52.136;5.420;2023-05-10T14:41:39;9.35;;;4.50;;
72060;SDS011;59925;52.136;5.420;2023-05-10T14:44:10;10.98;;;5.30;;
72060;SDS011;59925;52.136;5.420;2023-05-10T14:46:37;11.50;;;5.18;;
72060;SDS011;59925;52.136;5.420;2023-05-10T14:49:04;9.23;;;4.17;;
72060;SDS011;59925;52.136;5.420;2023-05-10T14:51:31;9.98;;;4.95;;
72060;SDS011;59925;52.136;5.420;2023-05-10T14:53:58;12.50;;;5.10;;
72060;SDS011;59925;52.136;5.420;2023-05-10T14:56:24;11.63;;;5.10;;
72060;SDS011;59925;52.136;5.420;2023-05-10T14:58:51;11.13;;;5.60;;
72060;SDS011;59925;52.136;5.420;2023-05-10T15:01:18;13.03;;;5.30;;
72060;SDS011;59925;52.136;5.420;2023-05-10T15:03:45;9.98;;;5.05;;
72060;SDS011;59925;52.136;5.420;2023-05-10T15:06:13;13.68;;;5.65;;
72060;SDS011;59925;52.136;5.420;2023-05-10T15:08:41;10.32;;;5.45;;